Time;durP1;ratioP1;P1;durP2;ratioP2;P2;SDS_P1;SDS_P2;PMS_P1;PMS_P2;Temp;Humidity;BMP_temperature;BMP_pressure;BME280_temperature;BME280_humidity;BME280_pressure;Samples;Min_cycle;Max_cycle;Signal;HPM_P1;HPM_P2
2023/12/22 00:00:07;;;;;;;2.07;1.97;;;4.10;99.90;;;;;;5068059;28;20613;-64
2023/12/22 00:02:37;;;;;;;3.40;2.20;;;4.20;99.90;;;;;;5068141;28;20589;-64
2023/12/22 00:05:07;;;;;;;2.23;2.00;;;4.20;99.90;;;;;;5068165;28;20708;-65
2023/12/22 00:07:35;;;;;;;4.33;2.00;;;4.30;99.90;;;;;;5067990;28;20193;-64
2023/12/22 00:10:05;;;;;;;2.57;2.10;;;4.30;99.90;;;;;;5068151;28;20212;-64
2023/12/22 00:12:46;;;;;;;6.47;2.10;;;4.30;99.90;;;;;;5067953;28;20224;-65
2023/12/22 00:15:16;;;;;;;3.80;2.50;;;4.40;99.90;;;;;;5067705;28;20670;-66
2023/12/22 00:17:47;;;;;;;8.17;2.73;;;4.40;99.90;;;;;;5067354;28;20196;-63
2023/12/22 00:20:25;;;;;;;5.83;2.90;;;4.50;99.90;;;;;;5067840;28;20206;-70
2023/12/22 00:22:53;;;;;;;4.17;2.60;;;4.70;99.90;;;;;;5067680;28;20221;-65
2023/12/22 00:25:22;;;;;;;5.53;3.13;;;4.80;99.90;;;;;;5067611;28;20675;-65
2023/12/22 00:27:51;;;;;;;5.47;2.67;;;4.80;99.90;;;;;;5067860;28;20690;-64
2023/12/22 00:30:19;;;;;;;7.97;2.67;;;4.80;99.90;;;;;;5068067;28;20189;-65
2023/12/22 00:32:49;;;;;;;6.27;2.80;;;4.80;99.90;;;;;;5067758;28;20275;-64
2023/12/22 00:35:18;;;;;;;10.00;3.63;;;4.80;99.90;;;;;;5067591;28;20283;-64
2023/12/22 00:37:46;;;;;;;6.33;3.23;;;5.00;99.90;;;;;;5068162;28;20203;-63
2023/12/22 00:40:15;;;;;;;9.40;3.07;;;5.00;99.90;;;;;;5068164;28;20197;-66
2023/12/22 00:42:47;;;;;;;9.20;2.93;;;5.00;99.90;;;;;;5068169;28;20735;-65
2023/12/22 00:45:15;;;;;;;10.40;3.47;;;5.10;99.90;;;;;;5068596;28;20217;-66
2023/12/22 00:47:44;;;;;;;6.83;3.73;;;5.20;99.90;;;;;;5068354;28;20216;-66
2023/12/22 00:50:14;;;;;;;6.60;3.07;;;5.10;99.90;;;;;;5070741;28;20193;-66
2023/12/22 00:52:42;;;;;;;5.17;2.60;;;5.10;99.90;;;;;;5072102;28;20288;-68
2023/12/22 00:55:11;;;;;;;5.70;2.97;;;5.00;99.90;;;;;;5071844;28;20312;-66
2023/12/22 00:57:40;;;;;;;5.87;2.80;;;5.00;99.90;;;;;;5071591;28;20227;-65
2023/12/22 01:00:12;;;;;;;5.70;2.83;;;4.90;99.90;;;;;;5071994;28;20200;-67
2023/12/22 01:02:40;;;;;;;3.73;2.60;;;4.90;99.90;;;;;;5071965;28;20197;-67
2023/12/22 01:05:10;;;;;;;5.63;2.47;;;4.80;99.90;;;;;;5071529;28;20300;-67
2023/12/22 01:07:40;;;;;;;3.40;2.50;;;4.90;99.90;;;;;;5071574;28;20225;-67
2023/12/22 01:10:09;;;;;;;3.60;3.10;;;4.90;99.90;;;;;;5071641;28;20197;-67
2023/12/22 01:12:38;;;;;;;3.27;2.00;;;4.90;99.90;;;;;;5071884;28;20200;-66
2023/12/22 01:15:08;;;;;;;3.83;2.10;;;5.00;99.90;;;;;;5071601;28;20189;-68
2023/12/22 01:17:36;;;;;;;2.53;1.77;;;4.80;99.90;;;;;;5071458;28;20229;-66
2023/12/22 01:20:06;;;;;;;3.53;1.77;;;4.80;99.90;;;;;;5071158;28;20201;-65
2023/12/22 01:22:38;;;;;;;4.50;2.67;;;4.70;99.90;;;;;;5071392;28;20209;-66
2023/12/22 01:25:08;;;;;;;2.70;2.10;;;4.80;99.90;;;;;;5071171;28;20663;-66
2023/12/22 01:27:37;;;;;;;2.60;2.40;;;4.90;99.90;;;;;;5071288;28;20200;-68
2023/12/22 01:30:07;;;;;;;3.23;2.00;;;4.80;99.90;;;;;;5071248;28;20227;-66
2023/12/22 01:32:36;;;;;;;2.97;2.40;;;4.80;99.90;;;;;;5071194;28;20559;-66
2023/12/22 01:35:09;;;;;;;3.27;2.57;;;4.90;99.90;;;;;;5070516;28;20259;-67
2023/12/22 01:37:38;;;;;;;2.40;2.20;;;4.90;99.90;;;;;;5071203;28;20220;-65
2023/12/22 01:40:09;;;;;;;2.37;2.00;;;4.80;99.90;;;;;;5070780;28;20284;-66
2023/12/22 01:42:39;;;;;;;3.80;2.40;;;4.80;99.90;;;;;;5071124;28;20280;-66
2023/12/22 01:45:10;;;;;;;2.10;2.00;;;4.60;99.90;;;;;;5070913;28;20192;-66
2023/12/22 01:47:39;;;;;;;4.23;2.70;;;4.80;99.90;;;;;;5070792;28;20228;-66
2023/12/22 01:50:10;;;;;;;4.13;2.50;;;4.80;99.90;;;;;;5070475;28;20193;-66
2023/12/22 01:52:40;;;;;;;2.73;2.13;;;4.70;99.90;;;;;;5070918;28;20224;-66
2023/12/22 01:55:13;;;;;;;3.57;2.50;;;4.50;99.90;;;;;;5070772;28;20208;-65
2023/12/22 01:57:42;;;;;;;4.20;2.90;;;4.60;99.90;;;;;;5070686;28;20229;-67
2023/12/22 02:00:13;;;;;;;3.27;2.37;;;4.60;99.90;;;;;;5070046;28;20197;-65
2023/12/22 02:02:43;;;;;;;2.27;2.07;;;4.50;99.90;;;;;;5070777;28;20200;-66
2023/12/22 02:05:12;;;;;;;2.87;2.30;;;4.60;99.90;;;;;;5070369;28;20247;-66
2023/12/22 02:07:43;;;;;;;2.40;2.20;;;4.60;99.90;;;;;;5070524;28;20224;-67
2023/12/22 02:10:13;;;;;;;11.40;8.17;;;4.30;99.90;;;;;;5070684;28;20229;-66
2023/12/22 02:12:43;;;;;;;2.33;2.10;;;4.40;99.90;;;;;;5070628;28;20197;-68
2023/12/22 02:15:11;;;;;;;2.43;2.23;;;4.30;99.90;;;;;;5070542;28;20659;-65
2023/12/22 02:17:49;;;;;;;2.20;2.10;;;4.10;99.90;;;;;;5070529;28;21074;-66
2023/12/22 02:20:18;;;;;;;2.63;2.00;;;3.90;99.90;;;;;;5070487;28;20219;-67
2023/12/22 02:22:53;;;;;;;2.53;2.07;;;3.80;99.90;;;;;;5070584;28;20196;-65
2023/12/22 02:25:21;;;;;;;2.13;2.03;;;3.80;99.90;;;;;;5070649;28;20656;-64
2023/12/22 02:27:52;;;;;;;2.47;2.27;;;3.80;99.90;;;;;;5070557;28;20216;-66
2023/12/22 02:30:26;;;;;;;2.20;2.00;;;3.80;99.90;;;;;;5070487;28;20221;-65
2023/12/22 02:33:03;;;;;;;3.23;2.37;;;3.70;99.90;;;;;;5070393;28;20292;-66
2023/12/22 02:35:36;;;;;;;2.37;2.17;;;3.70;99.90;;;;;;5069759;28;20239;-66
2023/12/22 02:38:07;;;;;;;2.63;2.43;;;3.80;99.90;;;;;;5070171;28;20280;-65
2023/12/22 02:40:37;;;;;;;5.93;2.47;;;3.80;99.90;;;;;;5070318;28;20196;-66
2023/12/22 02:43:07;;;;;;;2.50;2.40;;;3.70;99.90;;;;;;5070250;28;20554;-65
2023/12/22 02:45:36;;;;;;;2.90;2.60;;;3.80;99.90;;;;;;5070295;28;20276;-65
2023/12/22 02:48:05;;;;;;;3.00;2.77;;;3.80;99.90;;;;;;5076595;28;20971;-66
2023/12/22 02:50:34;;;;;;;2.63;2.30;;;3.80;99.90;;;;;;5090127;28;20197;-66
2023/12/22 02:53:03;;;;;;;3.37;1.97;;;3.90;99.90;;;;;;5090353;28;20196;-64
2023/12/22 02:55:33;;;;;;;4.73;2.30;;;3.90;99.90;;;;;;5087481;28;20190;-65
2023/12/22 02:58:02;;;;;;;3.07;2.77;;;3.90;99.90;;;;;;5069750;28;20194;-65
2023/12/22 03:00:30;;;;;;;3.57;2.10;;;4.00;99.90;;;;;;5069641;28;20201;-65
2023/12/22 03:02:59;;;;;;;4.03;2.40;;;4.00;99.90;;;;;;5069516;28;20201;-64
2023/12/22 03:05:27;;;;;;;2.77;2.30;;;3.80;99.90;;;;;;5069150;28;20203;-65
2023/12/22 03:07:56;;;;;;;2.07;1.97;;;3.70;99.90;;;;;;5069252;28;20229;-64
2023/12/22 03:10:25;;;;;;;2.90;2.17;;;3.60;99.90;;;;;;5069290;28;20266;-64
2023/12/22 03:12:55;;;;;;;5.13;2.93;;;3.70;99.90;;;;;;5068756;28;20609;-66
2023/12/22 03:15:23;;;;;;;2.20;2.10;;;3.80;99.90;;;;;;5069270;28;20209;-64
2023/12/22 03:17:52;;;;;;;2.40;2.20;;;3.80;99.90;;;;;;5069322;28;20189;-65
2023/12/22 03:20:21;;;;;;;5.03;2.43;;;3.70;99.90;;;;;;5069200;28;20197;-65
2023/12/22 03:22:49;;;;;;;3.47;3.27;;;3.70;99.90;;;;;;5068930;28;20200;-65
2023/12/22 03:25:18;;;;;;;3.40;2.40;;;3.80;99.90;;;;;;5069232;28;20185;-66
2023/12/22 03:27:46;;;;;;;2.60;2.40;;;3.80;99.90;;;;;;5068855;28;20244;-65
2023/12/22 03:30:17;;;;;;;4.00;2.40;;;3.70;99.90;;;;;;5069076;28;20276;-65
2023/12/22 03:32:45;;;;;;;2.53;2.30;;;3.70;99.90;;;;;;5069002;28;20205;-65
2023/12/22 03:35:14;;;;;;;2.47;2.27;;;3.80;99.90;;;;;;5068601;28;20249;-63
2023/12/22 03:37:43;;;;;;;2.30;2.10;;;4.00;99.90;;;;;;5069058;28;20197;-64
2023/12/22 03:40:12;;;;;;;3.90;2.00;;;3.90;99.90;;;;;;5069122;28;20197;-66
2023/12/22 03:42:40;;;;;;;2.30;2.20;;;3.70;99.90;;;;;;5069074;28;20734;-65
2023/12/22 03:45:09;;;;;;;3.33;2.60;;;3.70;99.90;;;;;;5068878;28;20280;-64
2023/12/22 03:47:39;;;;;;;2.00;1.90;;;3.60;99.90;;;;;;5068746;28;20221;-64
2023/12/22 03:50:09;;;;;;;1.90;1.80;;;3.70;99.90;;;;;;5068368;28;20667;-64
2023/12/22 03:52:38;;;;;;;2.17;1.97;;;3.60;99.90;;;;;;5068799;28;20193;-64
2023/12/22 03:55:07;;;;;;;2.03;1.93;;;3.60;99.90;;;;;;5068625;28;20750;-64
2023/12/22 03:57:35;;;;;;;4.80;2.40;;;3.60;99.90;;;;;;5068703;28;20209;-63
2023/12/22 04:00:05;;;;;;;2.47;2.17;;;3.60;99.90;;;;;;5068406;28;20670;-63
2023/12/22 04:02:33;;;;;;;4.37;2.50;;;3.70;99.90;;;;;;5068694;28;20205;-64
2023/12/22 04:05:04;;;;;;;3.60;2.80;;;3.70;99.90;;;;;;5068493;28;20241;-64
2023/12/22 04:07:33;;;;;;;3.97;3.00;;;3.70;99.90;;;;;;5068620;28;20302;-65
2023/12/22 04:10:01;;;;;;;8.97;3.10;;;3.70;99.90;;;;;;5068502;28;20353;-63
2023/12/22 04:12:30;;;;;;;5.67;2.83;;;3.90;99.90;;;;;;5068383;28;20275;-64
2023/12/22 04:14:58;;;;;;;5.27;2.73;;;3.80;99.90;;;;;;5068632;28;20197;-64
2023/12/22 04:17:27;;;;;;;6.50;3.20;;;3.80;99.90;;;;;;5068449;28;20215;-64
2023/12/22 04:19:56;;;;;;;4.47;2.90;;;3.70;99.90;;;;;;5068274;28;20196;-65
2023/12/22 04:22:26;;;;;;;7.07;3.10;;;3.70;99.90;;;;;;5068534;28;20189;-64
2023/12/22 04:24:54;;;;;;;13.27;2.87;;;3.70;99.90;;;;;;5072408;28;20189;-65
2023/12/22 04:27:23;;;;;;;6.93;3.17;;;3.80;99.90;;;;;;5072322;28;20563;-64
2023/12/22 04:29:51;;;;;;;6.57;2.93;;;3.80;99.90;;;;;;5072603;28;20486;-64
2023/12/22 04:32:20;;;;;;;4.03;2.87;;;3.90;99.90;;;;;;5072344;28;20192;-65
2023/12/22 04:34:48;;;;;;;9.37;2.87;;;3.90;99.90;;;;;;5071773;28;20201;-65
2023/12/22 04:37:17;;;;;;;4.33;3.07;;;3.90;99.90;;;;;;5071991;28;20270;-65
2023/12/22 04:39:47;;;;;;;6.90;2.83;;;3.80;99.90;;;;;;5072069;28;20288;-65
2023/12/22 04:42:16;;;;;;;10.60;3.57;;;3.90;99.90;;;;;;5072210;28;20199;-66
2023/12/22 04:44:44;;;;;;;9.40;4.00;;;3.80;99.90;;;;;;5072310;28;20193;-66
2023/12/22 04:47:13;;;;;;;5.53;2.43;;;3.80;99.90;;;;;;5072089;28;20274;-65
2023/12/22 04:49:41;;;;;;;11.03;3.63;;;3.70;99.90;;;;;;5071949;28;20211;-66
2023/12/22 04:52:11;;;;;;;10.57;3.93;;;3.70;99.90;;;;;;5072226;28;20225;-65
2023/12/22 04:54:39;;;;;;;8.50;3.80;;;3.90;99.90;;;;;;5072001;28;20275;-65
2023/12/22 04:57:09;;;;;;;11.57;3.80;;;3.80;99.90;;;;;;5072029;28;20192;-66
2023/12/22 04:59:38;;;;;;;11.07;3.40;;;3.60;99.90;;;;;;5071949;28;20190;-64
2023/12/22 05:02:07;;;;;;;6.80;3.23;;;3.50;99.90;;;;;;5072025;28;20226;-65
2023/12/22 05:04:35;;;;;;;12.33;4.03;;;3.60;99.90;;;;;;5071896;28;20205;-64
2023/12/22 05:07:07;;;;;;;7.47;3.37;;;3.60;99.90;;;;;;5009404;28;20211;-65
2023/12/22 05:09:35;;;;;;;7.30;3.13;;;3.60;99.90;;;;;;5009559;28;20301;-65
2023/12/22 05:12:04;;;;;;;10.77;4.57;;;3.40;99.90;;;;;;5009700;28;20211;-65
2023/12/22 05:14:35;;;;;;;5.70;3.20;;;3.40;99.90;;;;;;5009080;28;20195;-66
2023/12/22 05:17:03;;;;;;;6.17;3.53;;;3.40;99.90;;;;;;5009379;28;20298;-66
2023/12/22 05:19:32;;;;;;;8.70;3.37;;;3.40;99.90;;;;;;5009031;28;20288;-66
2023/12/22 05:22:00;;;;;;;5.73;3.40;;;3.30;99.90;;;;;;4992253;28;20216;-64
2023/12/22 05:24:29;;;;;;;12.80;4.57;;;3.30;99.90;;;;;;5019085;28;20240;-64
2023/12/22 05:26:57;;;;;;;10.73;3.57;;;3.20;99.90;;;;;;5071383;28;20583;-66
2023/12/22 05:29:26;;;;;;;14.47;4.80;;;3.10;99.90;;;;;;5070953;28;20641;-65
2023/12/22 05:31:56;;;;;;;16.27;4.47;;;3.10;99.90;;;;;;5071331;28;20192;-64
2023/12/22 05:34:25;;;;;;;8.07;4.07;;;3.10;99.90;;;;;;5070654;28;20205;-67
2023/12/22 05:36:53;;;;;;;12.07;4.00;;;3.10;99.90;;;;;;5070679;28;20863;-67
2023/12/22 05:39:22;;;;;;;13.67;4.50;;;3.10;99.90;;;;;;5071384;28;20288;-65
2023/12/22 05:41:50;;;;;;;16.50;3.77;;;3.10;99.90;;;;;;5071266;28;20679;-65
2023/12/22 05:44:19;;;;;;;9.80;4.37;;;3.30;99.90;;;;;;5071249;28;20280;-65
2023/12/22 05:46:47;;;;;;;14.60;4.30;;;3.20;99.90;;;;;;5071114;28;20197;-65
2023/12/22 05:49:18;;;;;;;14.83;4.83;;;3.20;99.90;;;;;;5071089;28;20213;-64
2023/12/22 05:51:46;;;;;;;16.77;4.43;;;3.10;99.90;;;;;;5071019;28;20221;-64
2023/12/22 05:54:15;;;;;;;12.47;3.83;;;3.20;99.90;;;;;;5071148;28;20600;-67
2023/12/22 05:56:44;;;;;;;15.83;5.23;;;3.20;99.90;;;;;;5071132;28;20216;-66
2023/12/22 05:59:12;;;;;;;11.27;4.03;;;3.10;99.90;;;;;;5070883;28;20197;-65
2023/12/22 06:01:41;;;;;;;7.20;3.80;;;3.00;99.90;;;;;;5070762;28;20207;-66
2023/12/22 06:04:09;;;;;;;10.43;3.97;;;2.90;99.90;;;;;;5070742;28;20235;-66
2023/12/22 06:06:39;;;;;;;7.00;3.50;;;2.80;99.90;;;;;;5070806;28;20728;-66
2023/12/22 06:09:08;;;;;;;13.20;3.93;;;2.90;99.90;;;;;;5070729;28;20225;-68
2023/12/22 06:11:40;;;;;;;11.83;5.27;;;2.90;99.90;;;;;;5070574;28;20211;-67
2023/12/22 06:14:09;;;;;;;11.97;4.70;;;3.00;99.90;;;;;;5070592;28;20201;-67
2023/12/22 06:16:37;;;;;;;12.00;4.63;;;3.10;99.90;;;;;;5069943;28;20270;-68
2023/12/22 06:19:06;;;;;;;20.33;5.00;;;3.00;99.90;;;;;;5070373;28;20250;-67
2023/12/22 06:21:38;;;;;;;13.37;4.50;;;3.10;99.90;;;;;;5070159;28;20211;-67
2023/12/22 06:24:09;;;;;;;12.00;4.33;;;2.90;99.90;;;;;;5070114;28;20211;-67
2023/12/22 06:26:38;;;;;;;10.57;5.23;;;3.00;99.90;;;;;;5069986;28;20895;-66
2023/12/22 06:29:06;;;;;;;10.23;4.97;;;3.00;99.90;;;;;;5070136;28;20314;-66
2023/12/22 06:31:35;;;;;;;10.97;4.33;;;2.90;99.90;;;;;;5070189;28;20200;-65
2023/12/22 06:34:04;;;;;;;13.07;5.03;;;3.00;99.90;;;;;;5070071;28;20202;-65
2023/12/22 06:36:33;;;;;;;11.57;4.20;;;2.90;99.90;;;;;;5069891;28;20310;-66
2023/12/22 06:39:02;;;;;;;7.63;3.43;;;2.90;99.90;;;;;;5069770;28;20197;-66
2023/12/22 06:41:32;;;;;;;8.60;3.73;;;3.00;99.90;;;;;;5069812;28;20287;-67
2023/12/22 06:44:01;;;;;;;8.33;4.30;;;2.90;99.90;;;;;;5069751;28;20652;-67
2023/12/22 06:46:31;;;;;;;7.70;3.77;;;3.00;99.90;;;;;;5068792;28;20224;-67
2023/12/22 06:49:00;;;;;;;12.63;4.47;;;2.90;99.90;;;;;;5069703;28;20235;-67
2023/12/22 06:51:34;;;;;;;6.60;4.00;;;3.00;99.90;;;;;;5069377;28;20207;-66
2023/12/22 06:54:04;;;;;;;6.27;3.80;;;3.00;99.90;;;;;;5069714;28;20567;-65
2023/12/22 06:56:37;;;;;;;10.67;4.53;;;2.90;99.90;;;;;;5069345;28;20255;-66
2023/12/22 06:59:05;;;;;;;10.97;4.70;;;2.90;99.90;;;;;;5069404;28;20195;-65
2023/12/22 07:01:36;;;;;;;10.27;4.17;;;2.80;99.90;;;;;;5069360;28;20309;-65
2023/12/22 07:04:06;;;;;;;8.70;4.30;;;2.80;99.90;;;;;;5062345;28;20254;-64
2023/12/22 07:06:35;;;;;;;12.60;3.97;;;2.80;99.90;;;;;;5049258;28;20246;-65
2023/12/22 07:09:29;;;;;;;9.47;3.63;;;2.90;99.90;;;;;;5049242;28;20772;-65
2023/12/22 07:11:59;;;;;;;4.40;3.87;;;2.90;99.90;;;;;;5049466;28;20196;-66
2023/12/22 07:14:28;;;;;;;12.67;4.63;;;3.00;99.90;;;;;;5049340;28;20201;-66
2023/12/22 07:17:00;;;;;;;6.77;4.23;;;3.00;99.90;;;;;;5049420;28;20281;-66
2023/12/22 07:19:29;;;;;;;6.23;4.27;;;3.00;99.90;;;;;;5046841;28;20212;-66
2023/12/22 07:21:57;;;;;;;8.80;4.57;;;3.10;99.90;;;;;;5048200;28;20217;-66
2023/12/22 07:24:26;;;;;;;10.23;3.90;;;3.00;99.90;;;;;;5049121;28;20203;-66
2023/12/22 07:26:55;;;;;;;10.80;4.63;;;3.10;99.90;;;;;;5049120;28;20193;-66
2023/12/22 07:29:25;;;;;;;12.67;3.93;;;3.00;99.90;;;;;;5048930;28;20243;-66
2023/12/22 07:31:54;;;;;;;8.47;3.97;;;3.00;99.90;;;;;;5049096;28;20207;-67
2023/12/22 07:34:22;;;;;;;10.50;4.67;;;3.00;99.90;;;;;;5048879;28;20205;-66
2023/12/22 07:36:53;;;;;;;4.70;3.70;;;3.00;99.90;;;;;;5048693;28;20253;-66
2023/12/22 07:39:27;;;;;;;6.53;3.80;;;3.00;99.90;;;;;;5049119;28;20927;-67
2023/12/22 07:41:55;;;;;;;11.73;4.30;;;3.00;99.90;;;;;;5048182;28;20198;-66
2023/12/22 07:44:26;;;;;;;9.73;5.03;;;3.00;99.90;;;;;;5060461;28;20720;-64
2023/12/22 07:47:54;;;;;;;5.93;4.00;;;3.90;99.90;;;;;;5146117;27;20841;-65
2023/12/22 07:50:22;;;;;;;12.33;4.53;;;3.80;99.90;;;;;;5147956;27;20797;-66
2023/12/22 07:52:51;;;;;;;5.13;2.97;;;3.70;99.90;;;;;;5147549;27;20285;-67
2023/12/22 07:55:20;;;;;;;5.33;3.27;;;3.50;99.90;;;;;;5147753;27;20204;-66
2023/12/22 07:57:49;;;;;;;8.00;3.80;;;3.40;99.90;;;;;;5147692;27;20206;-66
2023/12/22 08:00:18;;;;;;;10.63;4.30;;;3.50;99.90;;;;;;5148158;27;20197;-66
2023/12/22 08:02:47;;;;;;;10.40;4.60;;;3.60;99.90;;;;;;5148026;27;20203;-65
2023/12/22 08:05:18;;;;;;;8.80;3.83;;;3.40;99.90;;;;;;5147989;27;20194;-66
2023/12/22 08:07:47;;;;;;;10.43;3.60;;;3.50;99.90;;;;;;5147491;27;20222;-65
2023/12/22 08:10:16;;;;;;;7.37;3.73;;;3.50;99.90;;;;;;5148041;27;20208;-67
2023/12/22 08:12:44;;;;;;;6.17;3.33;;;3.40;99.90;;;;;;5147276;27;20195;-67
2023/12/22 08:15:13;;;;;;;6.23;3.13;;;3.30;99.90;;;;;;5147605;27;20205;-68
2023/12/22 08:17:50;;;;;;;5.97;3.10;;;3.30;99.90;;;;;;5147716;27;20281;-67
2023/12/22 08:20:20;;;;;;;5.23;3.13;;;3.40;99.90;;;;;;5127035;27;20282;-67
2023/12/22 08:22:52;;;;;;;5.50;3.03;;;3.50;99.90;;;;;;5132970;27;20231;-66
2023/12/22 08:25:21;;;;;;;5.83;3.40;;;3.50;99.90;;;;;;5147531;27;20206;-64
2023/12/22 08:27:50;;;;;;;5.00;3.43;;;3.50;99.90;;;;;;5147491;27;20251;-67
2023/12/22 08:30:19;;;;;;;5.03;3.33;;;3.50;99.90;;;;;;5147685;27;20198;-66
2023/12/22 08:32:47;;;;;;;4.30;2.80;;;3.40;99.90;;;;;;5147764;27;20221;-67
2023/12/22 08:35:16;;;;;;;4.93;3.17;;;3.50;99.90;;;;;;5147258;27;20198;-65
2023/12/22 08:37:46;;;;;;;7.03;3.57;;;3.60;99.90;;;;;;5147067;27;20694;-67
2023/12/22 08:40:16;;;;;;;7.07;3.57;;;3.40;99.90;;;;;;5146659;27;20255;-65
2023/12/22 08:42:50;;;;;;;5.03;3.47;;;3.30;99.90;;;;;;5147235;27;20205;-66
2023/12/22 08:45:24;;;;;;;4.50;2.93;;;3.40;99.90;;;;;;5147008;27;20260;-66
2023/12/22 08:47:53;;;;;;;3.67;3.37;;;3.40;99.90;;;;;;5147191;27;20309;-67
2023/12/22 08:50:21;;;;;;;5.80;3.20;;;3.60;99.90;;;;;;5146465;27;20205;-66
2023/12/22 08:52:51;;;;;;;5.47;3.17;;;3.50;99.90;;;;;;5146831;27;20651;-65
2023/12/22 08:55:20;;;;;;;6.20;3.40;;;3.50;99.90;;;;;;5146221;27;20194;-67
2023/12/22 08:57:49;;;;;;;4.97;3.40;;;3.50;99.90;;;;;;5140885;27;20226;-64
2023/12/22 09:00:21;;;;;;;9.47;3.97;;;3.40;99.90;;;;;;5133168;27;20187;-66
2023/12/22 09:02:50;;;;;;;3.63;2.67;;;3.50;99.90;;;;;;5133372;27;20202;-67
2023/12/22 09:05:20;;;;;;;7.87;3.43;;;3.50;99.90;;;;;;5133303;27;20219;-67
2023/12/22 09:07:51;;;;;;;5.67;3.30;;;3.40;99.90;;;;;;5132513;27;20226;-67
2023/12/22 09:10:20;;;;;;;3.70;2.90;;;3.50;99.90;;;;;;5132512;27;20199;-68
2023/12/22 09:12:55;;;;;;;3.63;2.90;;;3.40;99.90;;;;;;5132809;27;20214;-68
2023/12/22 09:15:24;;;;;;;6.20;2.93;;;3.50;99.90;;;;;;5132909;27;20249;-66
2023/12/22 09:17:55;;;;;;;6.93;3.73;;;3.50;99.90;;;;;;5132419;27;20600;-66
2023/12/22 09:20:24;;;;;;;5.77;3.33;;;3.40;99.90;;;;;;5132455;27;20211;-66
2023/12/22 09:22:56;;;;;;;3.73;3.37;;;3.40;99.90;;;;;;5132603;27;20195;-68
2023/12/22 09:25:33;;;;;;;10.47;3.70;;;3.40;99.90;;;;;;5067994;28;20273;-66
2023/12/22 09:28:02;;;;;;;3.80;2.73;;;3.50;99.90;;;;;;5068612;28;20224;-67
2023/12/22 09:30:31;;;;;;;6.30;3.73;;;3.50;99.90;;;;;;5068779;28;20217;-67
2023/12/22 09:33:00;;;;;;;19.03;10.47;;;3.50;99.90;;;;;;5068761;28;20735;-67
2023/12/22 09:35:29;;;;;;;4.97;4.47;;;3.60;99.90;;;;;;5068513;28;20201;-67
2023/12/22 09:37:59;;;;;;;5.27;3.77;;;3.80;99.90;;;;;;5068012;28;20243;-66
2023/12/22 09:40:28;;;;;;;6.37;3.83;;;3.80;99.90;;;;;;5068194;28;20363;-67
2023/12/22 09:42:58;;;;;;;4.87;3.50;;;3.90;99.90;;;;;;5079063;27;20578;-65
2023/12/22 09:45:27;;;;;;;3.93;3.53;;;3.80;99.90;;;;;;5131755;27;20207;-66
2023/12/22 09:47:57;;;;;;;5.53;3.53;;;3.80;99.90;;;;;;5131790;27;20207;-66
2023/12/22 09:50:31;;;;;;;4.47;3.03;;;3.70;99.90;;;;;;5132200;27;20701;-65
2023/12/22 09:53:02;;;;;;;5.30;3.60;;;3.60;99.90;;;;;;5131373;27;20207;-68
2023/12/22 09:55:35;;;;;;;3.60;3.13;;;3.60;99.90;;;;;;5132313;27;20279;-66
2023/12/22 09:58:05;;;;;;;5.77;3.30;;;3.70;99.90;;;;;;5132247;27;20286;-67
2023/12/22 10:00:36;;;;;;;3.13;2.83;;;3.70;99.90;;;;;;5130346;27;20602;-64
2023/12/22 10:03:10;;;;;;;4.03;3.63;;;3.70;99.90;;;;;;5129465;27;20302;-67
2023/12/22 10:05:41;;;;;;;4.40;4.00;;;3.80;99.90;;;;;;5130831;27;20257;-67
2023/12/22 10:08:22;;;;;;;3.67;3.30;;;3.90;99.90;;;;;;5130825;27;20733;-66
2023/12/22 10:10:56;;;;;;;3.10;2.90;;;3.80;99.90;;;;;;5130143;27;20644;-66
2023/12/22 10:13:27;;;;;;;2.90;2.57;;;3.90;99.90;;;;;;5131215;27;21005;-67
2023/12/22 10:15:57;;;;;;;4.33;2.87;;;4.00;99.90;;;;;;5130895;27;20202;-67
2023/12/22 10:18:26;;;;;;;3.50;3.20;;;3.90;99.90;;;;;;5130714;27;20203;-67
2023/12/22 10:20:57;;;;;;;4.20;2.93;;;4.00;99.90;;;;;;5131167;27;20205;-67
2023/12/22 10:23:28;;;;;;;3.23;3.03;;;4.00;99.90;;;;;;5130620;27;20766;-66
2023/12/22 10:25:59;;;;;;;3.73;2.90;;;4.20;99.90;;;;;;5130936;27;20191;-67
2023/12/22 10:28:29;;;;;;;3.23;2.93;;;4.30;99.90;;;;;;5130826;27;20287;-67
2023/12/22 10:31:03;;;;;;;2.60;2.40;;;4.20;99.90;;;;;;5130802;27;20219;-66
2023/12/22 10:33:32;;;;;;;4.00;3.23;;;4.20;99.90;;;;;;5130349;27;20207;-66
2023/12/22 10:36:01;;;;;;;3.17;2.87;;;4.20;99.90;;;;;;5151442;27;20197;-66
2023/12/22 10:38:35;;;;;;;2.97;2.77;;;4.20;99.90;;;;;;5151314;27;20381;-66
2023/12/22 10:41:06;;;;;;;3.87;3.23;;;4.10;99.90;;;;;;5151378;27;20193;-65
2023/12/22 10:43:39;;;;;;;2.63;2.43;;;4.00;99.90;;;;;;5151073;27;20251;-66
2023/12/22 10:46:10;;;;;;;4.27;3.67;;;4.10;99.90;;;;;;5143058;27;20236;-65
2023/12/22 10:48:41;;;;;;;5.40;3.00;;;4.00;99.90;;;;;;5149389;27;20225;-65
2023/12/22 10:51:11;;;;;;;3.83;2.87;;;4.10;99.90;;;;;;5151119;27;20681;-66
2023/12/22 10:53:43;;;;;;;2.67;2.47;;;4.10;99.90;;;;;;5150413;27;20198;-65
2023/12/22 10:56:12;;;;;;;4.27;2.53;;;4.10;99.90;;;;;;5151408;27;20753;-68
2023/12/22 10:58:45;;;;;;;3.30;2.23;;;4.10;99.90;;;;;;5150710;27;20194;-66
2023/12/22 11:01:16;;;;;;;4.17;2.47;;;4.10;99.90;;;;;;5150765;27;20186;-67
2023/12/22 11:03:48;;;;;;;2.53;2.23;;;4.10;99.90;;;;;;5150651;27;20201;-66
2023/12/22 11:06:18;;;;;;;2.70;2.50;;;4.00;99.90;;;;;;5150339;27;20206;-67
2023/12/22 11:08:50;;;;;;;5.07;2.40;;;4.00;99.90;;;;;;5150092;27;20218;-66
2023/12/22 11:11:29;;;;;;;4.47;3.47;;;3.90;99.90;;;;;;5150515;27;20198;-66
2023/12/22 11:13:58;;;;;;;2.67;2.43;;;3.80;99.90;;;;;;5150229;27;20190;-66
2023/12/22 11:16:29;;;;;;;3.63;3.20;;;3.80;99.90;;;;;;5149866;27;20274;-67
2023/12/22 11:18:58;;;;;;;3.87;3.27;;;3.90;99.90;;;;;;5149643;27;20281;-67
2023/12/22 11:21:28;;;;;;;3.43;3.03;;;3.90;99.90;;;;;;5149848;27;20277;-66
2023/12/22 11:23:59;;;;;;;5.20;3.50;;;3.90;99.90;;;;;;5149915;27;20696;-67
2023/12/22 11:26:27;;;;;;;4.47;3.50;;;3.90;99.90;;;;;;5150170;27;20242;-66
2023/12/22 11:28:57;;;;;;;3.33;3.03;;;3.70;99.90;;;;;;5148863;27;20218;-64
2023/12/22 11:31:32;;;;;;;4.40;3.13;;;3.80;99.90;;;;;;5149490;27;20192;-67
2023/12/22 11:34:06;;;;;;;4.00;2.63;;;3.70;99.90;;;;;;5149353;27;20706;-67
2023/12/22 11:36:44;;;;;;;3.63;3.30;;;3.70;99.90;;;;;;5149071;27;20246;-66
2023/12/22 11:39:15;;;;;;;7.83;3.83;;;3.80;99.90;;;;;;5149033;27;20205;-66
2023/12/22 11:41:45;;;;;;;4.13;3.53;;;3.80;99.90;;;;;;5149373;27;20194;-66
2023/12/22 11:44:14;;;;;;;4.87;3.80;;;3.80;99.90;;;;;;5149457;27;20203;-66
2023/12/22 11:46:43;;;;;;;5.20;3.47;;;3.90;99.90;;;;;;5129583;27;20586;-65
2023/12/22 11:49:12;;;;;;;3.83;2.70;;;3.80;99.90;;;;;;5148879;27;20250;-67
2023/12/22 11:51:44;;;;;;;3.10;2.83;;;3.70;99.90;;;;;;5149167;27;20540;-65
2023/12/22 11:54:49;;;;;;;3.93;3.53;;;3.70;99.90;;;;;;5149300;27;20205;-65
2023/12/22 11:57:32;;;;;;;5.87;3.70;;;3.60;99.90;;;;;;5148992;27;20208;-64
2023/12/22 12:00:05;;;;;;;6.33;4.73;;;3.50;99.90;;;;;;5149703;27;20207;-66
2023/12/22 12:02:41;;;;;;;3.30;2.80;;;3.70;99.90;;;;;;5149563;27;20263;-65
2023/12/22 12:05:13;;;;;;;18.77;10.13;;;3.80;99.90;;;;;;5149791;27;20555;-65
2023/12/22 12:07:47;;;;;;;3.40;3.10;;;3.70;99.90;;;;;;5149205;27;20194;-65
2023/12/22 12:10:52;;;;;;;3.17;2.83;;;3.70;99.90;;;;;;5148774;27;20194;-65
2023/12/22 12:13:26;;;;;;;2.40;2.20;;;3.70;99.90;;;;;;5064483;28;20212;-65
2023/12/22 12:15:59;;;;;;;3.90;2.30;;;3.60;99.90;;;;;;5064456;28;20209;-65
2023/12/22 12:18:30;;;;;;;3.50;3.00;;;3.70;99.90;;;;;;5064620;28;20233;-66
2023/12/22 12:20:59;;;;;;;4.40;2.53;;;3.50;99.90;;;;;;5064450;28;20185;-65
2023/12/22 12:23:28;;;;;;;2.97;2.60;;;3.60;99.90;;;;;;5063840;28;20193;-66
2023/12/22 12:25:57;;;;;;;3.07;2.50;;;3.70;99.90;;;;;;5065519;28;20197;-64
2023/12/22 12:28:31;;;;;;;2.77;2.30;;;3.70;99.90;;;;;;5064480;28;20282;-64
2023/12/22 12:31:01;;;;;;;2.60;2.40;;;3.70;99.90;;;;;;5064198;28;20280;-65
2023/12/22 12:33:30;;;;;;;2.77;2.50;;;3.60;99.90;;;;;;5066465;28;20674;-66
2023/12/22 12:36:00;;;;;;;4.77;3.40;;;3.50;99.90;;;;;;5068022;28;20627;-65
2023/12/22 12:38:45;;;;;;;3.17;2.37;;;3.60;99.90;;;;;;5067743;28;20208;-64
2023/12/22 12:41:17;;;;;;;2.50;2.30;;;3.60;99.90;;;;;;5068062;28;20224;-66
2023/12/22 12:43:49;;;;;;;2.63;2.47;;;3.60;99.90;;;;;;5067565;28;20262;-65
2023/12/22 12:46:17;;;;;;;2.73;2.47;;;3.50;99.90;;;;;;5067404;28;20252;-66
2023/12/22 12:48:46;;;;;;;4.90;3.03;;;3.50;99.90;;;;;;5067651;28;20369;-65
2023/12/22 12:51:15;;;;;;;3.10;2.80;;;3.60;99.90;;;;;;5119212;27;20706;-65
2023/12/22 12:53:44;;;;;;;5.13;3.10;;;3.60;99.90;;;;;;5131027;27;20215;-66
2023/12/22 12:56:14;;;;;;;3.80;3.03;;;3.60;99.90;;;;;;5131796;27;20187;-65
2023/12/22 12:58:42;;;;;;;4.80;3.07;;;3.60;99.90;;;;;;5131207;27;20195;-65
2023/12/22 13:01:13;;;;;;;3.20;3.00;;;3.60;99.90;;;;;;5131218;27;20195;-66
2023/12/22 13:03:54;;;;;;;4.30;3.37;;;3.60;99.90;;;;;;5131380;27;20745;-65
2023/12/22 13:06:25;;;;;;;3.63;2.77;;;3.60;99.90;;;;;;5130718;27;20209;-66
2023/12/22 13:08:54;;;;;;;3.17;2.70;;;3.70;99.90;;;;;;5131035;27;20237;-65
2023/12/22 13:11:26;;;;;;;5.90;3.97;;;3.60;99.90;;;;;;5131373;27;20191;-65